createdAt,value
2018-03-04T00:00:34.603Z,0
2018-03-04T00:01:15.200Z,0
2018-03-04T00:01:55.698Z,0
2018-03-04T00:02:36.174Z,0
2018-03-04T00:03:16.611Z,0
2018-03-04T00:03:57.084Z,0
2018-03-04T00:04:37.641Z,0
2018-03-04T00:05:18.106Z,0
2018-03-04T00:05:58.601Z,0
2018-03-04T00:06:39.066Z,0
2018-03-04T00:07:19.533Z,0
2018-03-04T00:08:00.014Z,0
2018-03-04T00:08:40.493Z,0
2018-03-04T00:09:20.966Z,0
2018-03-04T00:10:01.481Z,0
2018-03-04T00:10:42.004Z,0
2018-03-04T00:11:22.448Z,0
2018-03-04T00:12:02.953Z,0
2018-03-04T00:12:43.416Z,0
2018-03-04T00:13:23.910Z,0
2018-03-04T00:14:04.420Z,0
2018-03-04T00:14:44.957Z,0
2018-03-04T00:15:25.410Z,0
2018-03-04T00:16:05.911Z,0
2018-03-04T00:16:46.424Z,0
2018-03-04T00:17:26.945Z,0
2018-03-04T00:18:07.443Z,0
2018-03-04T00:18:47.930Z,0
2018-03-04T00:19:28.456Z,0
2018-03-04T00:20:08.992Z,0
2018-03-04T00:20:49.502Z,0
2018-03-04T00:21:29.961Z,0
2018-03-04T00:22:10.467Z,0
2018-03-04T00:22:50.978Z,0
2018-03-04T00:23:31.491Z,0
2018-03-04T00:24:12.024Z,0
2018-03-04T00:24:52.553Z,0
2018-03-04T00:25:33.059Z,0
2018-03-04T00:26:13.576Z,0
2018-03-04T00:26:54.092Z,0
2018-03-04T00:27:34.608Z,0
2018-03-04T00:28:15.147Z,0
2018-03-04T00:28:55.653Z,0
2018-03-04T00:29:36.166Z,0
2018-03-04T00:30:16.698Z,0
2018-03-04T00:30:57.208Z,0
2018-03-04T00:31:37.744Z,0
2018-03-04T00:32:18.259Z,0
2018-03-04T00:32:58.774Z,0
2018-03-04T00:33:39.282Z,0
2018-03-04T00:34:19.795Z,0
2018-03-04T00:35:00.322Z,0
2018-03-04T00:35:40.825Z,0
2018-03-04T00:36:21.356Z,0
2018-03-04T00:37:01.881Z,0
2018-03-04T00:37:42.401Z,0
2018-03-04T00:38:22.916Z,0
2018-03-04T00:39:03.433Z,0
2018-03-04T00:39:43.940Z,0
2018-03-04T00:40:24.449Z,0
2018-03-04T00:41:04.981Z,0
2018-03-04T00:41:45.491Z,0
2018-03-04T00:42:25.996Z,0
2018-03-04T00:43:06.565Z,0
2018-03-04T00:43:47.042Z,0
2018-03-04T00:44:27.551Z,0
2018-03-04T00:45:08.073Z,0
2018-03-04T00:45:48.584Z,0
2018-03-04T00:46:29.131Z,0
2018-03-04T00:47:09.640Z,0
2018-03-04T00:47:50.165Z,0
2018-03-04T00:48:30.677Z,0
2018-03-04T00:49:11.193Z,0
2018-03-04T00:49:51.717Z,0
2018-03-04T00:50:32.239Z,0
2018-03-04T00:51:12.760Z,0
2018-03-04T00:51:53.272Z,0
2018-03-04T00:52:33.781Z,0
2018-03-04T00:53:14.298Z,0
2018-03-04T00:53:54.814Z,0
2018-03-04T00:54:35.330Z,0
2018-03-04T00:55:15.850Z,0
2018-03-04T00:55:56.366Z,0
2018-03-04T00:56:36.879Z,0
2018-03-04T00:57:17.399Z,0
2018-03-04T00:57:57.924Z,0
2018-03-04T00:58:38.455Z,0
2018-03-04T00:59:18.966Z,0
2018-03-04T00:59:59.502Z,0
2018-03-04T01:00:40.022Z,0
2018-03-04T01:01:20.552Z,0
2018-03-04T01:02:01.072Z,0
2018-03-04T01:02:41.620Z,0
2018-03-04T01:03:22.142Z,0
2018-03-04T01:04:02.653Z,0
2018-03-04T01:04:43.172Z,0
2018-03-04T01:05:23.682Z,0
2018-03-04T01:06:04.202Z,0
2018-03-04T01:06:44.713Z,0
2018-03-04T01:07:25.232Z,0
2018-03-04T01:08:05.743Z,0
2018-03-04T01:08:46.278Z,0
2018-03-04T01:09:26.788Z,0
2018-03-04T01:10:07.314Z,0
2018-03-04T01:10:47.825Z,0
2018-03-04T01:11:28.345Z,0
2018-03-04T01:12:08.873Z,0
2018-03-04T01:12:49.387Z,0
2018-03-04T01:13:29.901Z,0
2018-03-04T01:14:10.438Z,0
2018-03-04T01:14:50.965Z,0
2018-03-04T01:15:31.480Z,0
2018-03-04T01:16:12.006Z,0
2018-03-04T01:16:52.516Z,0
2018-03-04T01:17:33.026Z,0
2018-03-04T01:18:13.539Z,0
2018-03-04T01:18:54.055Z,0
2018-03-04T01:19:34.561Z,0
2018-03-04T01:20:15.092Z,0
2018-03-04T01:20:55.603Z,0
2018-03-04T01:21:36.108Z,0
2018-03-04T01:22:16.641Z,0
2018-03-04T01:22:57.156Z,0
2018-03-04T01:23:37.644Z,0
2018-03-04T01:24:18.176Z,0
2018-03-04T01:24:58.686Z,0
2018-03-04T01:25:39.206Z,0
2018-03-04T01:26:19.712Z,0
2018-03-04T01:27:00.223Z,0
2018-03-04T01:27:40.729Z,0
2018-03-04T01:28:21.238Z,0
2018-03-04T01:29:01.760Z,0
2018-03-04T01:29:42.265Z,0
2018-03-04T01:30:22.784Z,0
2018-03-04T01:31:03.297Z,0
2018-03-04T01:31:43.801Z,0
2018-03-04T01:32:24.323Z,0
2018-03-04T01:33:04.833Z,0
2018-03-04T01:33:45.344Z,0
2018-03-04T01:34:25.900Z,0
2018-03-04T01:35:06.371Z,0
2018-03-04T01:35:46.907Z,0
2018-03-04T01:36:27.415Z,0
2018-03-04T01:37:07.929Z,0
2018-03-04T01:37:48.428Z,0
2018-03-04T01:38:28.951Z,0
2018-03-04T01:39:09.466Z,0
2018-03-04T01:39:49.986Z,0
2018-03-04T01:40:30.507Z,0
2018-03-04T01:41:11.015Z,0
2018-03-04T01:41:51.535Z,0
2018-03-04T01:42:32.046Z,0
2018-03-04T01:43:12.559Z,0
2018-03-04T01:43:53.077Z,0
2018-03-04T01:44:33.606Z,0
2018-03-04T01:45:14.116Z,0
2018-03-04T01:45:54.655Z,0
2018-03-04T01:46:35.170Z,0
2018-03-04T01:47:15.696Z,0
2018-03-04T01:47:56.237Z,0
2018-03-04T01:48:36.721Z,0
2018-03-04T01:49:17.244Z,0
2018-03-04T01:49:57.753Z,0
2018-03-04T01:50:38.265Z,0
2018-03-04T01:51:18.779Z,0
2018-03-04T01:51:59.286Z,0
2018-03-04T01:52:39.796Z,0
2018-03-04T01:53:20.319Z,0
2018-03-04T01:54:00.836Z,0
2018-03-04T01:54:41.355Z,0
2018-03-04T01:55:21.877Z,0
2018-03-04T01:56:02.396Z,0
2018-03-04T01:56:42.916Z,0
2018-03-04T01:57:23.436Z,0
2018-03-04T01:58:03.946Z,0
2018-03-04T01:58:44.450Z,0
2018-03-04T01:59:24.973Z,0
2018-03-04T02:00:05.490Z,0
2018-03-04T02:00:46.016Z,0
2018-03-04T02:01:26.531Z,0
2018-03-04T02:02:07.045Z,0
2018-03-04T02:02:47.557Z,0
2018-03-04T02:03:28.784Z,0
2018-03-04T02:04:09.298Z,0
2018-03-04T02:04:49.823Z,0
2018-03-04T02:05:30.336Z,0
2018-03-04T02:06:10.862Z,0
2018-03-04T02:06:51.388Z,0
2018-03-04T02:07:31.895Z,0
2018-03-04T02:08:12.409Z,0
2018-03-04T02:08:52.931Z,0
2018-03-04T02:09:33.440Z,0
2018-03-04T02:10:13.952Z,0
2018-03-04T02:10:54.472Z,0
2018-03-04T02:11:34.979Z,0
2018-03-04T02:12:15.492Z,0
2018-03-04T02:12:56.021Z,0
2018-03-04T02:13:36.539Z,0
2018-03-04T02:14:17.052Z,0
2018-03-04T02:14:57.575Z,0
2018-03-04T02:15:38.082Z,0
2018-03-04T02:16:18.595Z,0
2018-03-04T02:16:59.122Z,0
2018-03-04T02:17:39.646Z,0
2018-03-04T02:18:20.173Z,0
2018-03-04T02:19:00.682Z,0
2018-03-04T02:19:41.216Z,0
2018-03-04T02:20:21.745Z,0
2018-03-04T02:21:02.286Z,0
2018-03-04T02:21:42.793Z,0
2018-03-04T02:22:23.303Z,0
2018-03-04T02:23:03.823Z,0
2018-03-04T02:23:44.336Z,0
2018-03-04T02:24:24.854Z,0
2018-03-04T02:25:05.360Z,0
2018-03-04T02:25:45.873Z,0
2018-03-04T02:26:26.393Z,0
2018-03-04T02:27:06.907Z,0
2018-03-04T02:27:47.433Z,0
2018-03-04T02:28:27.959Z,0
2018-03-04T02:29:08.482Z,0
2018-03-04T02:29:48.987Z,0
2018-03-04T02:30:29.504Z,0
2018-03-04T02:31:10.016Z,0
2018-03-04T02:31:50.532Z,0
2018-03-04T02:32:31.054Z,0
2018-03-04T02:33:11.584Z,0
2018-03-04T02:33:52.110Z,0
2018-03-04T02:34:32.618Z,0
2018-03-04T02:35:13.126Z,0
2018-03-04T02:35:53.637Z,0
2018-03-04T02:36:34.182Z,0
2018-03-04T02:37:14.675Z,0
2018-03-04T02:37:55.191Z,0
2018-03-04T02:38:35.697Z,0
2018-03-04T02:39:16.216Z,0
2018-03-04T02:39:56.730Z,0
2018-03-04T02:40:37.239Z,0
2018-03-04T02:41:17.738Z,0
2018-03-04T02:41:58.272Z,0
2018-03-04T02:42:38.774Z,0
2018-03-04T02:43:19.289Z,0
2018-03-04T02:43:59.812Z,0
2018-03-04T02:44:40.330Z,0
2018-03-04T02:45:20.850Z,0
2018-03-04T02:46:01.376Z,0
2018-03-04T02:46:41.902Z,0
2018-03-04T02:47:22.412Z,0
2018-03-04T02:48:02.917Z,0
2018-03-04T02:48:43.440Z,0
2018-03-04T02:49:23.949Z,0
2018-03-04T02:50:04.468Z,0
2018-03-04T02:50:44.966Z,0
2018-03-04T02:51:25.479Z,0
2018-03-04T02:52:05.992Z,0
2018-03-04T02:52:46.539Z,0
2018-03-04T02:53:27.036Z,0
2018-03-04T02:54:07.558Z,0
2018-03-04T02:54:48.069Z,0
2018-03-04T02:55:28.586Z,0
2018-03-04T02:56:09.111Z,0
2018-03-04T02:56:49.626Z,0
2018-03-04T02:57:30.130Z,0
2018-03-04T02:58:10.649Z,0
2018-03-04T02:58:51.154Z,0
2018-03-04T02:59:31.658Z,0
2018-03-04T03:00:12.184Z,0
2018-03-04T03:00:52.700Z,0
2018-03-04T03:01:33.209Z,0
2018-03-04T03:02:13.722Z,0
2018-03-04T03:02:54.226Z,0
2018-03-04T03:03:34.760Z,0
2018-03-04T03:04:15.269Z,0
2018-03-04T03:04:55.786Z,0
2018-03-04T03:05:36.300Z,0
2018-03-04T03:06:16.831Z,0
2018-03-04T03:06:57.343Z,0
2018-03-04T03:07:37.864Z,0
2018-03-04T03:08:19.043Z,0
2018-03-04T03:08:58.872Z,0
2018-03-04T03:09:39.395Z,0
2018-03-04T03:10:19.916Z,0
2018-03-04T03:11:00.441Z,0
2018-03-04T03:11:40.951Z,0
2018-03-04T03:12:21.465Z,0
2018-03-04T03:13:01.981Z,0
2018-03-04T03:13:42.488Z,0
2018-03-04T03:14:23.017Z,0
2018-03-04T03:15:03.534Z,0
2018-03-04T03:15:44.053Z,0
2018-03-04T03:16:24.552Z,0
2018-03-04T03:17:05.061Z,0
2018-03-04T03:17:45.570Z,0
2018-03-04T03:18:26.084Z,0
2018-03-04T03:19:06.602Z,0
2018-03-04T03:19:47.111Z,0
2018-03-04T03:20:27.626Z,0
2018-03-04T03:21:08.149Z,0
2018-03-04T03:21:48.666Z,0
2018-03-04T03:22:29.179Z,0
2018-03-04T03:23:09.701Z,0
2018-03-04T03:23:50.230Z,0
2018-03-04T03:24:30.757Z,0
2018-03-04T03:25:11.287Z,0
2018-03-04T03:25:51.800Z,0
2018-03-04T03:26:32.315Z,0
2018-03-04T03:27:12.830Z,0
2018-03-04T03:27:53.350Z,0
2018-03-04T03:28:33.875Z,0
2018-03-04T03:29:14.398Z,0
2018-03-04T03:29:54.915Z,0
2018-03-04T03:30:35.432Z,0
2018-03-04T03:31:15.946Z,0
2018-03-04T03:31:56.469Z,0
2018-03-04T03:32:36.993Z,0
2018-03-04T03:33:17.514Z,0
2018-03-04T03:33:58.041Z,0
2018-03-04T03:34:38.559Z,0
2018-03-04T03:35:19.069Z,0
2018-03-04T03:35:59.590Z,0
2018-03-04T03:36:40.093Z,0
2018-03-04T03:37:20.599Z,0
2018-03-04T03:38:01.110Z,0
2018-03-04T03:38:41.627Z,0
2018-03-04T03:39:22.137Z,0
2018-03-04T03:40:02.647Z,0
2018-03-04T03:40:43.185Z,0
2018-03-04T03:41:23.695Z,0
2018-03-04T03:42:04.204Z,0
2018-03-04T03:42:44.731Z,0
2018-03-04T03:43:25.243Z,0
2018-03-04T03:44:05.759Z,0
2018-03-04T03:44:46.267Z,0
2018-03-04T03:45:26.775Z,0
2018-03-04T03:46:07.278Z,0
2018-03-04T03:46:47.823Z,0
2018-03-04T03:47:28.345Z,0
2018-03-04T03:48:08.877Z,0
2018-03-04T03:48:49.390Z,0
2018-03-04T03:49:29.899Z,0
2018-03-04T03:50:10.425Z,0
2018-03-04T03:50:50.939Z,0
2018-03-04T03:51:31.450Z,0
2018-03-04T03:52:11.959Z,0
2018-03-04T03:52:52.476Z,0
2018-03-04T03:53:33.005Z,0
2018-03-04T03:54:13.525Z,0
2018-03-04T03:54:54.053Z,0
2018-03-04T03:55:34.570Z,0
2018-03-04T03:56:15.095Z,0
2018-03-04T03:56:55.622Z,0
2018-03-04T03:57:36.140Z,0
2018-03-04T03:58:16.664Z,0
2018-03-04T03:58:57.172Z,0
2018-03-04T03:59:37.682Z,0
2018-03-04T04:00:18.199Z,0
2018-03-04T04:00:58.720Z,0
2018-03-04T04:01:39.242Z,0
2018-03-04T04:02:19.748Z,0
2018-03-04T04:03:00.259Z,0
2018-03-04T04:03:40.782Z,0
2018-03-04T04:04:21.289Z,0
2018-03-04T04:05:01.797Z,0
2018-03-04T04:05:42.332Z,0
2018-03-04T04:06:22.830Z,0
2018-03-04T04:07:03.343Z,0
2018-03-04T04:07:43.850Z,0
2018-03-04T04:08:24.360Z,0
2018-03-04T04:09:04.864Z,0
2018-03-04T04:09:45.375Z,0
2018-03-04T04:10:25.881Z,0
2018-03-04T04:11:06.400Z,0
2018-03-04T04:11:46.912Z,0
2018-03-04T04:12:27.418Z,0
2018-03-04T04:13:07.938Z,0
2018-03-04T04:13:48.445Z,0
2018-03-04T04:14:28.954Z,0
2018-03-04T04:15:09.477Z,0
2018-03-04T04:15:49.996Z,0
2018-03-04T04:16:30.510Z,0
2018-03-04T04:17:11.016Z,0
2018-03-04T04:17:51.538Z,0
2018-03-04T04:18:32.060Z,0
2018-03-04T04:19:12.573Z,0
2018-03-04T04:19:53.088Z,0
2018-03-04T04:20:33.608Z,0
2018-03-04T04:21:14.119Z,0
2018-03-04T04:21:54.650Z,0
2018-03-04T04:22:35.171Z,0
2018-03-04T04:23:15.676Z,0
2018-03-04T04:23:56.190Z,0
2018-03-04T04:24:36.703Z,0
2018-03-04T04:25:17.214Z,0
2018-03-04T04:25:57.730Z,0
2018-03-04T04:26:38.256Z,0
2018-03-04T04:27:18.751Z,0
2018-03-04T04:27:59.260Z,0
2018-03-04T04:28:39.773Z,0
2018-03-04T04:29:20.311Z,0
2018-03-04T04:30:00.824Z,0
2018-03-04T04:30:41.342Z,0
2018-03-04T04:31:21.852Z,0
2018-03-04T04:32:02.397Z,0
2018-03-04T04:32:42.918Z,0
2018-03-04T04:33:23.444Z,0
2018-03-04T04:34:03.965Z,0
2018-03-04T04:34:44.476Z,0
2018-03-04T04:35:24.986Z,0
2018-03-04T04:36:05.500Z,0
2018-03-04T04:36:46.029Z,0
2018-03-04T04:37:26.529Z,0
2018-03-04T04:38:07.047Z,0
2018-03-04T04:38:47.550Z,0
2018-03-04T04:39:28.072Z,0
2018-03-04T04:40:08.584Z,0
2018-03-04T04:40:49.101Z,0
2018-03-04T04:41:29.612Z,0
2018-03-04T04:42:10.118Z,0
2018-03-04T04:42:50.634Z,0
2018-03-04T04:43:31.143Z,0
2018-03-04T04:44:11.668Z,0
2018-03-04T04:44:52.181Z,0
2018-03-04T04:45:32.698Z,0
2018-03-04T04:46:13.212Z,0
2018-03-04T04:46:53.721Z,0
2018-03-04T04:47:34.245Z,0
2018-03-04T04:48:14.760Z,0
2018-03-04T04:48:55.274Z,0
2018-03-04T04:49:35.780Z,0
2018-03-04T04:50:16.330Z,0
2018-03-04T04:50:56.844Z,0
2018-03-04T04:51:37.358Z,0
2018-03-04T04:52:17.882Z,0
2018-03-04T04:52:58.394Z,0
2018-03-04T04:53:38.913Z,0
2018-03-04T04:54:19.440Z,0
2018-03-04T04:54:59.951Z,0
2018-03-04T04:55:40.457Z,0
2018-03-04T04:56:20.984Z,0
2018-03-04T04:57:01.484Z,0
2018-03-04T04:57:42.010Z,0
2018-03-04T04:58:22.531Z,0
2018-03-04T04:59:03.045Z,0
2018-03-04T04:59:43.573Z,0
2018-03-04T05:00:24.090Z,0
2018-03-04T05:01:04.642Z,0
2018-03-04T05:01:45.146Z,0
2018-03-04T05:02:25.664Z,0
2018-03-04T05:03:06.173Z,0
2018-03-04T05:03:46.686Z,0
2018-03-04T05:04:27.209Z,0
2018-03-04T05:05:07.726Z,0
2018-03-04T05:05:48.238Z,0
2018-03-04T05:06:28.757Z,0
2018-03-04T05:07:09.267Z,0
2018-03-04T05:07:49.777Z,0
2018-03-04T05:08:30.297Z,0
2018-03-04T05:09:10.814Z,0
2018-03-04T05:09:51.308Z,0
2018-03-04T05:10:31.824Z,0
2018-03-04T05:11:12.328Z,0
2018-03-04T05:11:52.832Z,0
2018-03-04T05:12:33.340Z,0
2018-03-04T05:13:13.848Z,0
2018-03-04T05:13:54.364Z,0
2018-03-04T05:14:34.877Z,0
2018-03-04T05:15:15.392Z,0
2018-03-04T05:15:55.902Z,0
2018-03-04T05:16:36.417Z,0
2018-03-04T05:17:16.920Z,0
2018-03-04T05:17:57.453Z,0
2018-03-04T05:18:37.975Z,0
2018-03-04T05:19:18.484Z,0
2018-03-04T05:19:59.001Z,0
2018-03-04T05:20:39.523Z,0
2018-03-04T05:21:20.030Z,0
2018-03-04T05:22:00.553Z,0
2018-03-04T05:22:41.077Z,0
2018-03-04T05:23:21.591Z,0
2018-03-04T05:24:02.106Z,0
2018-03-04T05:24:42.622Z,0
2018-03-04T05:25:23.137Z,0
2018-03-04T05:26:03.647Z,0
2018-03-04T05:26:44.157Z,0
2018-03-04T05:27:24.666Z,0
2018-03-04T05:28:05.224Z,0
2018-03-04T05:28:45.692Z,0
2018-03-04T05:29:26.214Z,0
2018-03-04T05:30:06.750Z,0
2018-03-04T05:30:47.258Z,0
2018-03-04T05:31:27.789Z,0
2018-03-04T05:32:08.310Z,0
2018-03-04T05:32:48.830Z,0
2018-03-04T05:33:29.348Z,0
2018-03-04T05:34:09.879Z,0
2018-03-04T05:34:50.396Z,0
2018-03-04T05:35:30.912Z,0
2018-03-04T05:36:11.414Z,0
2018-03-04T05:36:51.932Z,0
2018-03-04T05:37:32.447Z,0
2018-03-04T05:38:12.983Z,0
2018-03-04T05:38:53.505Z,0
2018-03-04T05:39:34.023Z,0
2018-03-04T05:40:14.532Z,0
2018-03-04T05:40:55.060Z,0
2018-03-04T05:41:35.565Z,0
2018-03-04T05:42:16.079Z,0
2018-03-04T05:42:56.605Z,0
2018-03-04T05:43:37.117Z,0
2018-03-04T05:44:17.631Z,0
2018-03-04T05:44:58.162Z,0
2018-03-04T05:45:38.672Z,0
2018-03-04T05:46:19.184Z,0
2018-03-04T05:46:59.696Z,0
2018-03-04T05:47:40.214Z,0
2018-03-04T05:48:20.731Z,0
2018-03-04T05:49:01.328Z,0
2018-03-04T05:49:41.844Z,0
2018-03-04T05:50:22.370Z,0
2018-03-04T05:51:02.876Z,0
2018-03-04T05:51:43.389Z,0
2018-03-04T05:52:23.922Z,0
2018-03-04T05:53:04.429Z,0
2018-03-04T05:53:44.956Z,0
2018-03-04T05:54:25.504Z,0
2018-03-04T05:55:05.992Z,0
2018-03-04T05:55:46.514Z,0
2018-03-04T05:56:27.023Z,0
2018-03-04T05:57:07.649Z,0
2018-03-04T05:57:48.166Z,0
2018-03-04T05:58:28.667Z,0
2018-03-04T05:59:09.172Z,0
2018-03-04T05:59:49.680Z,0
2018-03-04T06:00:30.199Z,0
2018-03-04T06:01:10.717Z,0
2018-03-04T06:01:51.234Z,0
2018-03-04T06:02:31.884Z,0
2018-03-04T06:03:12.399Z,0
2018-03-04T06:03:52.913Z,0
2018-03-04T06:04:33.423Z,0
2018-03-04T06:05:13.956Z,0
2018-03-04T06:05:54.470Z,0
2018-03-04T06:06:34.987Z,0
2018-03-04T06:07:15.525Z,0
2018-03-04T06:07:56.041Z,0
2018-03-04T06:08:36.572Z,0
2018-03-04T06:09:17.093Z,0
2018-03-04T06:09:58.576Z,5
2018-03-04T06:10:38.120Z,5
2018-03-04T06:11:18.848Z,5
2018-03-04T06:11:59.151Z,5
2018-03-04T06:12:39.669Z,5
2018-03-04T06:13:20.194Z,5
2018-03-04T06:14:00.705Z,5
2018-03-04T06:14:41.216Z,5
2018-03-04T06:15:21.728Z,5
2018-03-04T06:16:02.256Z,5
2018-03-04T06:16:42.754Z,5
2018-03-04T06:17:23.274Z,5
2018-03-04T06:18:03.795Z,5
2018-03-04T06:18:44.304Z,5
2018-03-04T06:19:24.812Z,5
2018-03-04T06:20:05.319Z,5
2018-03-04T06:20:45.836Z,10
2018-03-04T06:21:26.343Z,10
2018-03-04T06:22:06.855Z,10
2018-03-04T06:22:47.375Z,10
2018-03-04T06:23:27.886Z,10
2018-03-04T06:24:08.401Z,10
2018-03-04T06:24:48.922Z,10
2018-03-04T06:25:29.434Z,10
2018-03-04T06:26:09.961Z,10
2018-03-04T06:26:50.473Z,10
2018-03-04T06:27:30.991Z,10
2018-03-04T06:28:11.505Z,10
2018-03-04T06:28:52.026Z,10
2018-03-04T06:29:32.687Z,10
2018-03-04T06:30:13.068Z,15
2018-03-04T06:30:53.587Z,15
2018-03-04T06:31:34.121Z,15
2018-03-04T06:32:14.636Z,20
2018-03-04T06:32:55.149Z,20
2018-03-04T06:33:35.682Z,20
2018-03-04T06:34:16.190Z,15
2018-03-04T06:34:56.706Z,15
2018-03-04T06:35:37.226Z,15
2018-03-04T06:36:17.734Z,15
2018-03-04T06:36:58.245Z,15
2018-03-04T06:37:38.764Z,20
2018-03-04T06:38:19.286Z,20
2018-03-04T06:38:59.797Z,20
2018-03-04T06:39:40.314Z,20
2018-03-04T06:40:20.833Z,20
2018-03-04T06:41:01.342Z,20
2018-03-04T06:41:41.876Z,20
2018-03-04T06:42:22.391Z,20
2018-03-04T06:43:02.899Z,20
2018-03-04T06:43:43.422Z,20
2018-03-04T06:44:23.963Z,20
2018-03-04T06:45:04.478Z,20
2018-03-04T06:45:44.997Z,20
2018-03-04T06:46:25.504Z,20
2018-03-04T06:47:06.039Z,15
2018-03-04T06:47:46.576Z,15
2018-03-04T06:48:27.094Z,15
2018-03-04T06:49:07.626Z,15
2018-03-04T06:49:48.128Z,15
2018-03-04T06:50:28.645Z,15
2018-03-04T06:51:09.265Z,15
2018-03-04T06:51:49.794Z,15
2018-03-04T06:52:30.312Z,15
2018-03-04T06:53:10.826Z,15
2018-03-04T06:53:51.332Z,15
2018-03-04T06:54:31.850Z,15
2018-03-04T06:55:12.390Z,15
2018-03-04T06:55:52.891Z,15
2018-03-04T06:56:33.410Z,15
2018-03-04T06:57:13.949Z,15
2018-03-04T06:57:54.503Z,15
2018-03-04T06:58:34.982Z,15
2018-03-04T06:59:15.499Z,15
2018-03-04T06:59:56.022Z,15
2018-03-04T07:00:36.535Z,20
2018-03-04T07:01:17.049Z,20
2018-03-04T07:01:57.568Z,25
2018-03-04T07:02:38.114Z,30
2018-03-04T07:03:18.635Z,30
2018-03-04T07:03:59.170Z,30
2018-03-04T07:04:39.699Z,30
2018-03-04T07:05:20.240Z,30
2018-03-04T07:06:00.758Z,30
2018-03-04T07:06:41.268Z,30
2018-03-04T07:07:21.813Z,30
2018-03-04T07:08:02.335Z,35
2018-03-04T07:08:42.817Z,35
2018-03-04T07:09:23.334Z,35
2018-03-04T07:10:03.859Z,35
2018-03-04T07:10:44.370Z,35
2018-03-04T07:11:24.894Z,35
2018-03-04T07:12:05.413Z,35
2018-03-04T07:12:45.936Z,35
2018-03-04T07:13:26.569Z,35
2018-03-04T07:14:07.129Z,35
2018-03-04T07:14:47.668Z,35
2018-03-04T07:15:28.200Z,40
2018-03-04T07:16:08.729Z,40
2018-03-04T07:16:49.248Z,40
2018-03-04T07:17:29.733Z,40
2018-03-04T07:18:10.271Z,40
2018-03-04T07:18:50.781Z,40
2018-03-04T07:19:31.429Z,40
2018-03-04T07:20:11.877Z,40
2018-03-04T07:20:52.392Z,40
2018-03-04T07:21:32.909Z,40
2018-03-04T07:22:13.406Z,45
2018-03-04T07:22:53.935Z,45
2018-03-04T07:23:34.451Z,45
2018-03-04T07:24:14.971Z,45
2018-03-04T07:24:55.487Z,40
2018-03-04T07:25:36.005Z,40
2018-03-04T07:26:16.520Z,40
2018-03-04T07:26:57.050Z,40
2018-03-04T07:27:37.576Z,40
2018-03-04T07:28:18.078Z,40
2018-03-04T07:28:58.594Z,45
2018-03-04T07:29:39.154Z,45
2018-03-04T07:30:19.614Z,50
2018-03-04T07:31:00.124Z,50
2018-03-04T07:31:40.638Z,50
2018-03-04T07:32:21.141Z,50
2018-03-04T07:33:01.666Z,50
2018-03-04T07:33:42.187Z,50
2018-03-04T07:34:22.718Z,50
2018-03-04T07:35:03.221Z,55
2018-03-04T07:35:43.742Z,55
2018-03-04T07:36:24.253Z,55
2018-03-04T07:37:04.773Z,60
2018-03-04T07:37:45.298Z,55
2018-03-04T07:38:25.824Z,55
2018-03-04T07:39:06.344Z,55
2018-03-04T07:39:46.867Z,55
2018-03-04T07:40:27.384Z,55
2018-03-04T07:41:07.896Z,60
2018-03-04T07:41:48.395Z,60
2018-03-04T07:42:28.915Z,60
2018-03-04T07:43:09.421Z,60
2018-03-04T07:43:49.995Z,55
2018-03-04T07:44:30.524Z,55
2018-03-04T07:45:11.219Z,60
2018-03-04T07:45:51.726Z,60
2018-03-04T07:46:32.243Z,55
2018-03-04T07:47:12.740Z,60
2018-03-04T07:47:53.261Z,60
2018-03-04T07:48:33.773Z,65
2018-03-04T07:49:14.283Z,75
2018-03-04T07:49:54.806Z,75
2018-03-04T07:50:35.330Z,70
2018-03-04T07:51:15.859Z,75
2018-03-04T07:51:56.372Z,80
2018-03-04T07:52:36.909Z,75
2018-03-04T07:53:17.415Z,80
2018-03-04T07:53:57.923Z,80
2018-03-04T07:54:38.414Z,80
2018-03-04T07:55:18.939Z,80
2018-03-04T07:55:59.461Z,85
2018-03-04T07:56:39.972Z,85
2018-03-04T07:57:20.487Z,85
2018-03-04T07:58:01.045Z,85
2018-03-04T07:58:41.563Z,85
2018-03-04T07:59:22.176Z,80
2018-03-04T08:00:02.708Z,80
2018-03-04T08:00:43.254Z,80
2018-03-04T08:01:23.781Z,75
2018-03-04T08:02:04.304Z,75
2018-03-04T08:02:44.822Z,75
2018-03-04T08:03:25.361Z,70
2018-03-04T08:04:05.876Z,80
2018-03-04T08:04:46.399Z,80
2018-03-04T08:05:26.908Z,80
2018-03-04T08:06:07.437Z,75
2018-03-04T08:06:47.956Z,75
2018-03-04T08:07:28.467Z,80
2018-03-04T08:08:08.976Z,85
2018-03-04T08:08:49.516Z,85
2018-03-04T08:09:30.049Z,85
2018-03-04T08:10:10.584Z,90
2018-03-04T08:10:51.101Z,95
2018-03-04T08:11:31.635Z,95
2018-03-04T08:12:12.150Z,95
2018-03-04T08:12:52.664Z,100
2018-03-04T08:13:33.177Z,95
2018-03-04T08:14:13.711Z,90
2018-03-04T08:14:54.221Z,90
2018-03-04T08:15:34.744Z,65
2018-03-04T08:16:15.252Z,85
2018-03-04T08:16:55.776Z,90
2018-03-04T08:17:36.297Z,85
2018-03-04T08:18:16.817Z,90
2018-03-04T08:18:57.337Z,90
2018-03-04T08:19:37.893Z,95
2018-03-04T08:20:18.408Z,100
2018-03-04T08:20:58.935Z,100
2018-03-04T08:21:39.500Z,100
2018-03-04T08:22:20.028Z,105
2018-03-04T08:23:00.543Z,110
2018-03-04T08:23:41.108Z,110
2018-03-04T08:24:21.633Z,105
2018-03-04T08:25:02.136Z,105
2018-03-04T08:25:42.650Z,110
2018-03-04T08:26:23.177Z,110
2018-03-04T08:27:03.689Z,110
2018-03-04T08:27:44.210Z,110
2018-03-04T08:28:24.729Z,105
2018-03-04T08:29:05.237Z,110
2018-03-04T08:29:45.758Z,110
2018-03-04T08:30:26.304Z,110
2018-03-04T08:31:06.819Z,105
2018-03-04T08:31:47.330Z,105
2018-03-04T08:32:27.861Z,100
2018-03-04T08:33:08.427Z,100
2018-03-04T08:33:48.942Z,95
2018-03-04T08:34:29.459Z,95
2018-03-04T08:35:09.966Z,95
2018-03-04T08:35:50.478Z,95
2018-03-04T08:36:30.994Z,100
2018-03-04T08:37:11.514Z,100
2018-03-04T08:37:52.031Z,100
2018-03-04T08:38:32.545Z,100
2018-03-04T08:39:13.066Z,100
2018-03-04T08:39:53.587Z,95
2018-03-04T08:40:34.108Z,90
2018-03-04T08:41:14.645Z,90
2018-03-04T08:41:55.171Z,95
2018-03-04T08:42:35.692Z,100
2018-03-04T08:43:16.245Z,105
2018-03-04T08:43:56.747Z,105
2018-03-04T08:44:37.269Z,110
2018-03-04T08:45:17.782Z,110
2018-03-04T08:45:58.303Z,110
2018-03-04T08:46:38.820Z,115
2018-03-04T08:47:19.331Z,125
2018-03-04T08:47:59.853Z,130
2018-03-04T08:48:40.377Z,135
2018-03-04T08:49:20.888Z,140
2018-03-04T08:50:01.779Z,145
2018-03-04T08:50:42.330Z,145
2018-03-04T08:51:22.856Z,140
2018-03-04T08:52:03.376Z,140
2018-03-04T08:52:43.894Z,145
2018-03-04T08:53:24.417Z,145
2018-03-04T08:54:04.938Z,140
2018-03-04T08:54:45.451Z,140
2018-03-04T08:55:25.971Z,140
2018-03-04T08:56:06.548Z,135
2018-03-04T08:56:47.027Z,135
2018-03-04T08:57:27.570Z,140
2018-03-04T08:58:08.091Z,145
2018-03-04T08:58:48.629Z,155
2018-03-04T08:59:29.115Z,160
2018-03-04T09:00:09.627Z,150
2018-03-04T09:00:50.163Z,145
2018-03-04T09:01:30.670Z,140
2018-03-04T09:02:11.178Z,135
2018-03-04T09:02:51.711Z,130
2018-03-04T09:03:32.224Z,130
2018-03-04T09:04:12.744Z,130
2018-03-04T09:04:53.262Z,130
2018-03-04T09:05:33.785Z,135
2018-03-04T09:06:14.319Z,135
2018-03-04T09:06:54.832Z,135
2018-03-04T09:07:35.359Z,135
2018-03-04T09:08:15.883Z,135
2018-03-04T09:08:56.404Z,135
2018-03-04T09:09:36.931Z,135
2018-03-04T09:10:17.469Z,145
2018-03-04T09:10:57.970Z,145
2018-03-04T09:11:38.513Z,150
2018-03-04T09:12:19.037Z,155
2018-03-04T09:12:59.561Z,155
2018-03-04T09:13:40.083Z,160
2018-03-04T09:14:20.603Z,160
2018-03-04T09:15:01.130Z,160
2018-03-04T09:15:41.644Z,155
2018-03-04T09:16:22.156Z,155
2018-03-04T09:17:02.673Z,160
2018-03-04T09:17:43.199Z,165
2018-03-04T09:18:23.709Z,170
2018-03-04T09:19:04.215Z,180
2018-03-04T09:19:44.789Z,195
2018-03-04T09:20:25.247Z,190
2018-03-04T09:21:05.776Z,125
2018-03-04T09:21:46.301Z,135
2018-03-04T09:22:26.821Z,145
2018-03-04T09:23:07.338Z,160
2018-03-04T09:23:47.861Z,175
2018-03-04T09:24:28.385Z,175
2018-03-04T09:25:08.910Z,190
2018-03-04T09:25:49.611Z,200
2018-03-04T09:26:30.134Z,165
2018-03-04T09:27:10.730Z,195
2018-03-04T09:27:51.268Z,190
2018-03-04T09:28:31.848Z,185
2018-03-04T09:29:12.379Z,205
2018-03-04T09:29:52.931Z,230
2018-03-04T09:30:33.430Z,235
2018-03-04T09:31:13.945Z,220
2018-03-04T09:31:54.540Z,205
2018-03-04T09:32:35.058Z,205
2018-03-04T09:33:15.589Z,215
2018-03-04T09:33:56.088Z,225
2018-03-04T09:34:36.604Z,205
2018-03-04T09:35:17.128Z,170
2018-03-04T09:35:57.688Z,155
2018-03-04T09:36:38.212Z,135
2018-03-04T09:37:18.723Z,145
2018-03-04T09:37:59.212Z,170
2018-03-04T09:38:39.957Z,160
2018-03-04T09:39:20.517Z,185
2018-03-04T09:40:13.083Z,175
2018-03-04T09:40:56.192Z,205
2018-03-04T09:41:38.610Z,165
2018-03-04T09:42:18.972Z,135
2018-03-04T09:42:59.494Z,185
2018-03-04T09:43:40.041Z,175
2018-03-04T09:44:20.797Z,180
2018-03-04T09:45:01.466Z,165
2018-03-04T09:45:41.815Z,170
2018-03-04T09:46:22.323Z,165
2018-03-04T09:47:02.851Z,155
2018-03-04T09:47:43.346Z,195
2018-03-04T09:48:24.137Z,185
2018-03-04T09:49:04.641Z,160